sensor_id;sensor_type;location;lat;lon;timestamp;P1;durP1;ratioP1;P2;durP2;ratioP2
22849;SDS011;11591;44.792;10.358;2023-05-29T00:00:06;21.00;;;10.70;;
22849;SDS011;11591;44.792;10.358;2023-05-29T00:02:35;17.13;;;10.43;;
22849;SDS011;11591;44.792;10.358;2023-05-29T00:05:01;18.67;;;10.65;;
22849;SDS011;11591;44.792;10.358;2023-05-29T00:07:29;19.92;;;10.73;;
22849;SDS011;11591;44.792;10.358;2023-05-29T00:09:55;17.02;;;10.35;;
22849;SDS011;11591;44.792;10.358;2023-05-29T00:12:21;17.08;;;10.13;;
22849;SDS011;11591;44.792;10.358;2023-05-29T00:14:48;21.65;;;11.00;;
22849;SDS011;11591;44.792;10.358;2023-05-29T00:17:14;17.52;;;10.68;;
22849;SDS011;11591;44.792;10.358;2023-05-29T00:19:40;20.45;;;11.25;;
22849;SDS011;11591;44.792;10.358;2023-05-29T00:22:07;20.33;;;11.23;;
22849;SDS011;11591;44.792;10.358;2023-05-29T00:24:33;23.67;;;12.60;;
22849;SDS011;11591;44.792;10.358;2023-05-29T00:26:59;19.10;;;10.80;;
22849;SDS011;11591;44.792;10.358;2023-05-29T00:29:26;19.35;;;10.40;;
22849;SDS011;11591;44.792;10.358;2023-05-29T00:31:53;18.70;;;11.45;;
22849;SDS011;11591;44.792;10.358;2023-05-29T00:34:21;19.23;;;10.60;;
22849;SDS011;11591;44.792;10.358;2023-05-29T00:36:50;18.65;;;11.00;;
22849;SDS011;11591;44.792;10.358;2023-05-29T00:39:17;17.38;;;10.77;;
22849;SDS011;11591;44.792;10.358;2023-05-29T00:41:43;17.40;;;10.45;;
22849;SDS011;11591;44.792;10.358;2023-05-29T00:44:08;16.58;;;11.05;;
22849;SDS011;11591;44.792;10.358;2023-05-29T00:46:35;18.92;;;11.07;;
22849;SDS011;11591;44.792;10.358;2023-05-29T00:49:01;17.60;;;10.95;;
22849;SDS011;11591;44.792;10.358;2023-05-29T00:51:29;23.50;;;11.10;;
22849;SDS011;11591;44.792;10.358;2023-05-29T00:53:56;18.30;;;11.27;;
22849;SDS011;11591;44.792;10.358;2023-05-29T00:56:23;19.23;;;10.93;;
22849;SDS011;11591;44.792;10.358;2023-05-29T00:58:51;18.98;;;11.18;;
22849;SDS011;11591;44.792;10.358;2023-05-29T01:01:17;19.60;;;11.50;;
22849;SDS011;11591;44.792;10.358;2023-05-29T01:03:44;18.65;;;10.93;;
22849;SDS011;11591;44.792;10.358;2023-05-29T01:06:11;21.50;;;11.20;;
22849;SDS011;11591;44.792;10.358;2023-05-29T01:08:37;16.00;;;10.40;;
22849;SDS011;11591;44.792;10.358;2023-05-29T01:11:08;17.65;;;10.35;;
22849;SDS011;11591;44.792;10.358;2023-05-29T01:13:43;18.35;;;10.32;;
22849;SDS011;11591;44.792;10.358;2023-05-29T01:16:21;25.25;;;11.70;;
22849;SDS011;11591;44.792;10.358;2023-05-29T01:18:57;25.17;;;12.82;;
22849;SDS011;11591;44.792;10.358;2023-05-29T01:24:26;25.00;;;13.05;;
22849;SDS011;11591;44.792;10.358;2023-05-29T01:27:03;22.42;;;13.05;;
22849;SDS011;11591;44.792;10.358;2023-05-29T01:29:34;22.35;;;12.05;;
22849;SDS011;11591;44.792;10.358;2023-05-29T01:32:02;17.25;;;10.18;;
22849;SDS011;11591;44.792;10.358;2023-05-29T01:34:29;21.70;;;10.52;;
22849;SDS011;11591;44.792;10.358;2023-05-29T01:36:55;20.48;;;10.32;;
22849;SDS011;11591;44.792;10.358;2023-05-29T01:39:21;16.35;;;10.75;;
22849;SDS011;11591;44.792;10.358;2023-05-29T01:41:50;23.13;;;12.90;;
22849;SDS011;11591;44.792;10.358;2023-05-29T01:44:18;27.33;;;13.15;;
22849;SDS011;11591;44.792;10.358;2023-05-29T01:46:46;26.85;;;13.02;;
22849;SDS011;11591;44.792;10.358;2023-05-29T01:49:13;25.15;;;13.45;;
22849;SDS011;11591;44.792;10.358;2023-05-29T01:51:40;23.40;;;12.95;;
22849;SDS011;11591;44.792;10.358;2023-05-29T01:54:06;20.05;;;11.85;;
22849;SDS011;11591;44.792;10.358;2023-05-29T01:56:32;22.80;;;12.48;;
22849;SDS011;11591;44.792;10.358;2023-05-29T01:58:59;17.65;;;12.23;;
22849;SDS011;11591;44.792;10.358;2023-05-29T02:01:27;23.92;;;12.73;;
22849;SDS011;11591;44.792;10.358;2023-05-29T02:03:53;19.27;;;11.40;;
22849;SDS011;11591;44.792;10.358;2023-05-29T02:06:19;19.50;;;11.85;;
22849;SDS011;11591;44.792;10.358;2023-05-29T02:08:45;18.52;;;11.30;;
22849;SDS011;11591;44.792;10.358;2023-05-29T02:11:11;18.92;;;11.63;;
22849;SDS011;11591;44.792;10.358;2023-05-29T02:13:38;24.63;;;12.30;;
22849;SDS011;11591;44.792;10.358;2023-05-29T02:16:04;22.15;;;11.85;;
22849;SDS011;11591;44.792;10.358;2023-05-29T02:18:30;21.63;;;12.13;;
22849;SDS011;11591;44.792;10.358;2023-05-29T02:20:56;21.95;;;12.75;;
22849;SDS011;11591;44.792;10.358;2023-05-29T02:23:22;21.23;;;11.73;;
22849;SDS011;11591;44.792;10.358;2023-05-29T02:25:50;19.58;;;12.38;;
22849;SDS011;11591;44.792;10.358;2023-05-29T02:28:16;21.50;;;11.40;;
22849;SDS011;11591;44.792;10.358;2023-05-29T02:30:41;18.17;;;11.05;;
22849;SDS011;11591;44.792;10.358;2023-05-29T02:33:08;21.17;;;11.57;;
22849;SDS011;11591;44.792;10.358;2023-05-29T02:35:34;20.73;;;13.35;;
22849;SDS011;11591;44.792;10.358;2023-05-29T02:37:59;22.67;;;13.23;;
22849;SDS011;11591;44.792;10.358;2023-05-29T02:40:25;21.30;;;12.63;;
22849;SDS011;11591;44.792;10.358;2023-05-29T02:42:51;24.17;;;13.55;;
22849;SDS011;11591;44.792;10.358;2023-05-29T02:45:17;24.42;;;13.55;;
22849;SDS011;11591;44.792;10.358;2023-05-29T02:47:43;23.70;;;13.93;;
22849;SDS011;11591;44.792;10.358;2023-05-29T02:50:08;21.25;;;12.85;;
22849;SDS011;11591;44.792;10.358;2023-05-29T02:52:35;20.63;;;13.27;;
22849;SDS011;11591;44.792;10.358;2023-05-29T02:55:05;22.20;;;12.23;;
22849;SDS011;11591;44.792;10.358;2023-05-29T02:57:31;19.88;;;11.55;;
22849;SDS011;11591;44.792;10.358;2023-05-29T02:59:57;19.27;;;11.70;;
22849;SDS011;11591;44.792;10.358;2023-05-29T03:02:23;22.85;;;11.82;;
22849;SDS011;11591;44.792;10.358;2023-05-29T03:04:50;18.83;;;11.43;;
22849;SDS011;11591;44.792;10.358;2023-05-29T03:07:18;21.15;;;11.98;;
22849;SDS011;11591;44.792;10.358;2023-05-29T03:09:44;19.17;;;11.20;;
22849;SDS011;11591;44.792;10.358;2023-05-29T03:12:10;20.17;;;11.90;;
22849;SDS011;11591;44.792;10.358;2023-05-29T03:14:36;22.23;;;11.52;;
22849;SDS011;11591;44.792;10.358;2023-05-29T03:17:05;22.05;;;10.85;;
22849;SDS011;11591;44.792;10.358;2023-05-29T03:19:34;22.08;;;11.63;;
22849;SDS011;11591;44.792;10.358;2023-05-29T03:22:00;16.88;;;11.13;;
22849;SDS011;11591;44.792;10.358;2023-05-29T03:24:26;17.10;;;11.07;;
22849;SDS011;11591;44.792;10.358;2023-05-29T03:26:52;17.50;;;10.60;;
22849;SDS011;11591;44.792;10.358;2023-05-29T03:29:18;21.70;;;10.35;;
22849;SDS011;11591;44.792;10.358;2023-05-29T03:31:44;18.08;;;10.27;;
22849;SDS011;11591;44.792;10.358;2023-05-29T03:34:14;19.92;;;10.38;;
22849;SDS011;11591;44.792;10.358;2023-05-29T03:36:44;21.25;;;10.65;;
22849;SDS011;11591;44.792;10.358;2023-05-29T03:39:11;18.10;;;10.80;;
22849;SDS011;11591;44.792;10.358;2023-05-29T03:41:39;23.58;;;10.88;;
22849;SDS011;11591;44.792;10.358;2023-05-29T03:44:05;18.77;;;10.73;;
22849;SDS011;11591;44.792;10.358;2023-05-29T03:46:31;20.08;;;11.07;;
22849;SDS011;11591;44.792;10.358;2023-05-29T03:48:57;19.08;;;11.48;;
22849;SDS011;11591;44.792;10.358;2023-05-29T03:51:23;21.30;;;10.40;;
22849;SDS011;11591;44.792;10.358;2023-05-29T03:53:52;23.25;;;11.80;;
22849;SDS011;11591;44.792;10.358;2023-05-29T03:56:18;21.52;;;11.02;;
22849;SDS011;11591;44.792;10.358;2023-05-29T03:58:43;19.88;;;11.25;;
22849;SDS011;11591;44.792;10.358;2023-05-29T04:01:09;17.05;;;10.90;;
22849;SDS011;11591;44.792;10.358;2023-05-29T04:03:35;20.67;;;11.90;;
22849;SDS011;11591;44.792;10.358;2023-05-29T04:06:01;19.23;;;11.25;;
22849;SDS011;11591;44.792;10.358;2023-05-29T04:08:27;22.45;;;11.40;;
22849;SDS011;11591;44.792;10.358;2023-05-29T04:10:53;21.25;;;11.80;;
22849;SDS011;11591;44.792;10.358;2023-05-29T04:13:20;19.83;;;10.48;;
22849;SDS011;11591;44.792;10.358;2023-05-29T04:15:46;19.83;;;10.80;;
22849;SDS011;11591;44.792;10.358;2023-05-29T04:18:13;20.65;;;11.60;;
22849;SDS011;11591;44.792;10.358;2023-05-29T04:20:40;17.98;;;11.30;;
22849;SDS011;11591;44.792;10.358;2023-05-29T04:23:06;17.75;;;10.82;;
22849;SDS011;11591;44.792;10.358;2023-05-29T04:25:32;20.02;;;10.93;;
22849;SDS011;11591;44.792;10.358;2023-05-29T04:27:59;23.63;;;11.82;;
22849;SDS011;11591;44.792;10.358;2023-05-29T04:30:27;22.55;;;11.95;;
22849;SDS011;11591;44.792;10.358;2023-05-29T04:32:54;22.30;;;12.05;;
22849;SDS011;11591;44.792;10.358;2023-05-29T04:35:22;21.83;;;11.77;;
22849;SDS011;11591;44.792;10.358;2023-05-29T04:38:01;23.10;;;11.82;;
22849;SDS011;11591;44.792;10.358;2023-05-29T04:40:31;20.77;;;13.50;;
22849;SDS011;11591;44.792;10.358;2023-05-29T04:42:58;21.58;;;13.00;;
22849;SDS011;11591;44.792;10.358;2023-05-29T04:45:37;23.08;;;13.68;;
22849;SDS011;11591;44.792;10.358;2023-05-29T04:48:03;24.38;;;13.25;;
22849;SDS011;11591;44.792;10.358;2023-05-29T04:50:30;22.13;;;13.10;;
22849;SDS011;11591;44.792;10.358;2023-05-29T04:52:57;22.25;;;13.25;;
22849;SDS011;11591;44.792;10.358;2023-05-29T04:55:23;26.08;;;14.27;;
22849;SDS011;11591;44.792;10.358;2023-05-29T04:57:49;23.27;;;13.23;;
22849;SDS011;11591;44.792;10.358;2023-05-29T05:00:15;26.77;;;13.88;;
22849;SDS011;11591;44.792;10.358;2023-05-29T05:03:01;23.92;;;14.45;;
22849;SDS011;11591;44.792;10.358;2023-05-29T05:05:27;23.73;;;14.48;;
22849;SDS011;11591;44.792;10.358;2023-05-29T05:07:57;28.17;;;13.40;;
22849;SDS011;11591;44.792;10.358;2023-05-29T05:10:23;26.60;;;12.98;;
22849;SDS011;11591;44.792;10.358;2023-05-29T05:12:49;28.67;;;13.95;;
22849;SDS011;11591;44.792;10.358;2023-05-29T05:15:19;19.88;;;12.13;;
22849;SDS011;11591;44.792;10.358;2023-05-29T05:17:44;23.92;;;11.98;;
22849;SDS011;11591;44.792;10.358;2023-05-29T05:20:11;24.20;;;12.15;;
22849;SDS011;11591;44.792;10.358;2023-05-29T05:22:38;21.58;;;12.40;;
22849;SDS011;11591;44.792;10.358;2023-05-29T05:25:04;21.67;;;11.93;;
22849;SDS011;11591;44.792;10.358;2023-05-29T05:27:30;22.88;;;11.35;;
22849;SDS011;11591;44.792;10.358;2023-05-29T05:29:57;17.38;;;10.68;;
22849;SDS011;11591;44.792;10.358;2023-05-29T05:32:24;18.77;;;10.77;;
22849;SDS011;11591;44.792;10.358;2023-05-29T05:34:58;21.95;;;11.30;;
22849;SDS011;11591;44.792;10.358;2023-05-29T05:37:24;19.77;;;11.52;;
22849;SDS011;11591;44.792;10.358;2023-05-29T05:39:51;22.92;;;11.43;;
22849;SDS011;11591;44.792;10.358;2023-05-29T05:42:19;17.95;;;10.32;;
22849;SDS011;11591;44.792;10.358;2023-05-29T05:44:57;27.80;;;11.52;;
22849;SDS011;11591;44.792;10.358;2023-05-29T05:47:23;19.33;;;11.88;;
22849;SDS011;11591;44.792;10.358;2023-05-29T05:49:49;20.65;;;11.70;;
22849;SDS011;11591;44.792;10.358;2023-05-29T05:52:17;23.08;;;12.30;;
22849;SDS011;11591;44.792;10.358;2023-05-29T05:54:43;22.25;;;12.27;;
22849;SDS011;11591;44.792;10.358;2023-05-29T05:57:11;20.13;;;12.02;;
22849;SDS011;11591;44.792;10.358;2023-05-29T05:59:37;27.60;;;12.88;;
22849;SDS011;11591;44.792;10.358;2023-05-29T06:02:04;20.15;;;12.30;;
22849;SDS011;11591;44.792;10.358;2023-05-29T06:04:30;23.70;;;13.00;;
22849;SDS011;11591;44.792;10.358;2023-05-29T06:06:57;24.90;;;12.93;;
22849;SDS011;11591;44.792;10.358;2023-05-29T06:09:22;22.67;;;12.40;;
22849;SDS011;11591;44.792;10.358;2023-05-29T06:11:50;21.00;;;12.95;;
22849;SDS011;11591;44.792;10.358;2023-05-29T06:14:16;29.35;;;13.35;;
22849;SDS011;11591;44.792;10.358;2023-05-29T06:16:42;28.50;;;12.85;;
22849;SDS011;11591;44.792;10.358;2023-05-29T06:19:08;31.77;;;14.65;;
22849;SDS011;11591;44.792;10.358;2023-05-29T06:21:48;27.13;;;13.57;;
22849;SDS011;11591;44.792;10.358;2023-05-29T06:24:14;30.25;;;14.02;;
22849;SDS011;11591;44.792;10.358;2023-05-29T06:26:40;31.20;;;14.93;;
22849;SDS011;11591;44.792;10.358;2023-05-29T06:29:09;27.10;;;14.70;;
22849;SDS011;11591;44.792;10.358;2023-05-29T06:31:35;26.23;;;15.40;;
22849;SDS011;11591;44.792;10.358;2023-05-29T06:34:00;28.25;;;16.20;;
22849;SDS011;11591;44.792;10.358;2023-05-29T06:36:26;34.25;;;17.90;;
22849;SDS011;11591;44.792;10.358;2023-05-29T06:38:52;36.70;;;18.25;;
22849;SDS011;11591;44.792;10.358;2023-05-29T06:41:18;31.23;;;17.58;;
22849;SDS011;11591;44.792;10.358;2023-05-29T06:43:44;31.35;;;18.20;;
22849;SDS011;11591;44.792;10.358;2023-05-29T06:46:10;34.05;;;18.02;;
22849;SDS011;11591;44.792;10.358;2023-05-29T06:48:36;33.13;;;18.45;;
22849;SDS011;11591;44.792;10.358;2023-05-29T06:51:02;38.85;;;19.83;;
22849;SDS011;11591;44.792;10.358;2023-05-29T06:53:39;32.95;;;19.23;;
22849;SDS011;11591;44.792;10.358;2023-05-29T06:56:07;35.38;;;19.95;;
22849;SDS011;11591;44.792;10.358;2023-05-29T06:58:33;32.67;;;18.70;;
22849;SDS011;11591;44.792;10.358;2023-05-29T07:00:59;39.97;;;21.77;;
22849;SDS011;11591;44.792;10.358;2023-05-29T07:03:36;34.28;;;18.60;;
22849;SDS011;11591;44.792;10.358;2023-05-29T07:06:03;36.70;;;19.13;;
22849;SDS011;11591;44.792;10.358;2023-05-29T07:08:30;30.70;;;19.33;;
22849;SDS011;11591;44.792;10.358;2023-05-29T07:10:56;39.85;;;19.88;;
22849;SDS011;11591;44.792;10.358;2023-05-29T07:13:24;36.20;;;19.65;;
22849;SDS011;11591;44.792;10.358;2023-05-29T07:15:50;35.97;;;18.67;;
22849;SDS011;11591;44.792;10.358;2023-05-29T07:18:23;37.85;;;20.50;;
22849;SDS011;11591;44.792;10.358;2023-05-29T07:20:49;38.15;;;20.42;;
22849;SDS011;11591;44.792;10.358;2023-05-29T07:23:18;37.25;;;19.35;;
22849;SDS011;11591;44.792;10.358;2023-05-29T07:25:43;39.47;;;19.65;;
22849;SDS011;11591;44.792;10.358;2023-05-29T07:28:09;35.67;;;20.33;;
22849;SDS011;11591;44.792;10.358;2023-05-29T07:30:36;38.55;;;21.33;;
22849;SDS011;11591;44.792;10.358;2023-05-29T07:33:03;34.83;;;20.20;;
22849;SDS011;11591;44.792;10.358;2023-05-29T07:35:30;42.13;;;20.67;;
22849;SDS011;11591;44.792;10.358;2023-05-29T07:37:58;37.50;;;20.20;;
22849;SDS011;11591;44.792;10.358;2023-05-29T07:40:24;32.30;;;19.15;;
22849;SDS011;11591;44.792;10.358;2023-05-29T07:43:09;41.20;;;20.65;;
22849;SDS011;11591;44.792;10.358;2023-05-29T07:45:43;48.67;;;21.33;;
22849;SDS011;11591;44.792;10.358;2023-05-29T07:48:09;33.40;;;18.80;;
22849;SDS011;11591;44.792;10.358;2023-05-29T07:50:35;36.22;;;18.55;;
22849;SDS011;11591;44.792;10.358;2023-05-29T07:53:02;25.05;;;14.93;;
22849;SDS011;11591;44.792;10.358;2023-05-29T07:55:28;28.98;;;16.63;;
22849;SDS011;11591;44.792;10.358;2023-05-29T07:57:55;29.15;;;15.55;;
22849;SDS011;11591;44.792;10.358;2023-05-29T08:00:21;31.13;;;15.32;;
22849;SDS011;11591;44.792;10.358;2023-05-29T08:02:47;28.23;;;14.85;;
22849;SDS011;11591;44.792;10.358;2023-05-29T08:05:35;30.10;;;15.35;;
22849;SDS011;11591;44.792;10.358;2023-05-29T08:08:06;30.08;;;16.77;;
22849;SDS011;11591;44.792;10.358;2023-05-29T08:10:34;38.95;;;16.85;;
22849;SDS011;11591;44.792;10.358;2023-05-29T08:13:01;27.45;;;16.45;;
22849;SDS011;11591;44.792;10.358;2023-05-29T08:15:27;29.45;;;16.33;;
22849;SDS011;11591;44.792;10.358;2023-05-29T08:17:52;29.42;;;16.75;;
22849;SDS011;11591;44.792;10.358;2023-05-29T08:20:18;30.90;;;16.95;;
22849;SDS011;11591;44.792;10.358;2023-05-29T08:22:44;28.25;;;17.33;;
22849;SDS011;11591;44.792;10.358;2023-05-29T08:25:10;26.92;;;16.15;;
22849;SDS011;11591;44.792;10.358;2023-05-29T08:27:35;32.80;;;16.90;;
22849;SDS011;11591;44.792;10.358;2023-05-29T08:30:02;29.77;;;17.45;;
22849;SDS011;11591;44.792;10.358;2023-05-29T08:32:28;34.22;;;17.40;;
22849;SDS011;11591;44.792;10.358;2023-05-29T08:34:54;30.15;;;17.95;;
22849;SDS011;11591;44.792;10.358;2023-05-29T08:37:20;29.08;;;17.20;;
22849;SDS011;11591;44.792;10.358;2023-05-29T08:39:46;31.83;;;18.23;;
22849;SDS011;11591;44.792;10.358;2023-05-29T08:42:23;30.70;;;17.75;;
22849;SDS011;11591;44.792;10.358;2023-05-29T08:44:55;30.35;;;17.95;;
22849;SDS011;11591;44.792;10.358;2023-05-29T08:47:26;30.73;;;18.10;;
22849;SDS011;11591;44.792;10.358;2023-05-29T08:49:53;37.72;;;17.38;;
22849;SDS011;11591;44.792;10.358;2023-05-29T08:52:19;31.83;;;14.75;;
22849;SDS011;11591;44.792;10.358;2023-05-29T08:54:48;27.73;;;15.45;;
22849;SDS011;11591;44.792;10.358;2023-05-29T08:57:14;34.90;;;16.73;;
22849;SDS011;11591;44.792;10.358;2023-05-29T08:59:43;25.95;;;13.55;;
22849;SDS011;11591;44.792;10.358;2023-05-29T09:02:14;27.85;;;13.50;;
22849;SDS011;11591;44.792;10.358;2023-05-29T09:04:43;26.55;;;14.05;;
22849;SDS011;11591;44.792;10.358;2023-05-29T09:07:17;28.15;;;15.18;;
22849;SDS011;11591;44.792;10.358;2023-05-29T09:09:44;25.00;;;15.02;;
22849;SDS011;11591;44.792;10.358;2023-05-29T09:12:11;26.95;;;15.18;;
22849;SDS011;11591;44.792;10.358;2023-05-29T09:14:38;26.75;;;14.32;;
22849;SDS011;11591;44.792;10.358;2023-05-29T09:17:06;23.15;;;13.57;;
22849;SDS011;11591;44.792;10.358;2023-05-29T09:19:33;28.52;;;14.57;;
22849;SDS011;11591;44.792;10.358;2023-05-29T09:22:07;25.30;;;13.70;;
22849;SDS011;11591;44.792;10.358;2023-05-29T09:24:41;28.10;;;15.95;;
22849;SDS011;11591;44.792;10.358;2023-05-29T09:27:08;27.08;;;15.02;;
22849;SDS011;11591;44.792;10.358;2023-05-29T09:29:38;29.98;;;16.38;;
22849;SDS011;11591;44.792;10.358;2023-05-29T09:32:06;28.70;;;15.20;;
22849;SDS011;11591;44.792;10.358;2023-05-29T09:34:36;25.40;;;14.35;;
22849;SDS011;11591;44.792;10.358;2023-05-29T09:37:03;26.48;;;13.85;;
22849;SDS011;11591;44.792;10.358;2023-05-29T09:39:54;29.55;;;13.93;;
22849;SDS011;11591;44.792;10.358;2023-05-29T09:42:19;26.75;;;14.40;;
22849;SDS011;11591;44.792;10.358;2023-05-29T09:44:48;24.63;;;14.48;;
22849;SDS011;11591;44.792;10.358;2023-05-29T09:47:16;31.27;;;13.85;;
22849;SDS011;11591;44.792;10.358;2023-05-29T09:49:43;25.05;;;14.00;;
22849;SDS011;11591;44.792;10.358;2023-05-29T09:52:11;29.35;;;14.23;;
22849;SDS011;11591;44.792;10.358;2023-05-29T09:54:43;26.33;;;13.73;;
22849;SDS011;11591;44.792;10.358;2023-05-29T09:57:13;29.15;;;15.35;;
22849;SDS011;11591;44.792;10.358;2023-05-29T09:59:41;28.08;;;14.32;;
22849;SDS011;11591;44.792;10.358;2023-05-29T10:02:10;26.40;;;14.25;;
22849;SDS011;11591;44.792;10.358;2023-05-29T10:04:38;24.40;;;14.98;;
22849;SDS011;11591;44.792;10.358;2023-05-29T10:10:14;24.05;;;14.20;;
22849;SDS011;11591;44.792;10.358;2023-05-29T10:12:44;26.85;;;15.40;;
22849;SDS011;11591;44.792;10.358;2023-05-29T10:15:13;24.65;;;13.07;;
22849;SDS011;11591;44.792;10.358;2023-05-29T10:17:50;24.48;;;14.13;;
22849;SDS011;11591;44.792;10.358;2023-05-29T10:20:27;24.45;;;13.20;;
22849;SDS011;11591;44.792;10.358;2023-05-29T10:22:54;20.50;;;12.93;;
22849;SDS011;11591;44.792;10.358;2023-05-29T10:25:22;25.67;;;13.45;;
22849;SDS011;11591;44.792;10.358;2023-05-29T10:27:49;22.48;;;13.15;;
22849;SDS011;11591;44.792;10.358;2023-05-29T10:30:21;25.08;;;12.75;;
22849;SDS011;11591;44.792;10.358;2023-05-29T10:35:48;26.98;;;13.23;;
22849;SDS011;11591;44.792;10.358;2023-05-29T10:38:40;41.70;;;20.50;;
22849;SDS011;11591;44.792;10.358;2023-05-29T10:43:53;20.52;;;12.05;;
22849;SDS011;11591;44.792;10.358;2023-05-29T10:46:20;20.05;;;10.38;;
22849;SDS011;11591;44.792;10.358;2023-05-29T10:48:49;21.42;;;10.15;;
22849;SDS011;11591;44.792;10.358;2023-05-29T10:51:24;21.15;;;10.27;;
22849;SDS011;11591;44.792;10.358;2023-05-29T10:53:51;21.08;;;10.07;;
22849;SDS011;11591;44.792;10.358;2023-05-29T10:56:21;16.42;;;10.27;;
22849;SDS011;11591;44.792;10.358;2023-05-29T10:58:53;21.33;;;10.70;;
22849;SDS011;11591;44.792;10.358;2023-05-29T11:01:23;16.42;;;9.80;;
22849;SDS011;11591;44.792;10.358;2023-05-29T11:03:53;18.05;;;10.45;;
22849;SDS011;11591;44.792;10.358;2023-05-29T11:06:43;17.85;;;10.57;;
22849;SDS011;11591;44.792;10.358;2023-05-29T11:09:31;19.73;;;11.25;;
22849;SDS011;11591;44.792;10.358;2023-05-29T11:17:32;19.35;;;10.65;;
22849;SDS011;11591;44.792;10.358;2023-05-29T11:20:05;17.92;;;11.40;;
22849;SDS011;11591;44.792;10.358;2023-05-29T11:25:14;17.98;;;10.80;;
22849;SDS011;11591;44.792;10.358;2023-05-29T11:27:44;22.95;;;10.95;;
22849;SDS011;11591;44.792;10.358;2023-05-29T11:30:11;22.00;;;10.70;;
22849;SDS011;11591;44.792;10.358;2023-05-29T11:32:38;22.90;;;11.57;;
22849;SDS011;11591;44.792;10.358;2023-05-29T11:35:08;22.05;;;12.20;;
22849;SDS011;11591;44.792;10.358;2023-05-29T11:37:35;22.90;;;10.30;;
22849;SDS011;11591;44.792;10.358;2023-05-29T11:40:03;17.50;;;9.27;;
22849;SDS011;11591;44.792;10.358;2023-05-29T11:42:40;17.42;;;9.38;;
22849;SDS011;11591;44.792;10.358;2023-05-29T11:45:13;22.15;;;10.30;;
22849;SDS011;11591;44.792;10.358;2023-05-29T11:47:56;16.50;;;9.30;;
22849;SDS011;11591;44.792;10.358;2023-05-29T11:50:24;17.33;;;9.93;;
22849;SDS011;11591;44.792;10.358;2023-05-29T11:52:51;19.42;;;9.45;;
22849;SDS011;11591;44.792;10.358;2023-05-29T11:55:17;18.48;;;10.23;;
22849;SDS011;11591;44.792;10.358;2023-05-29T11:57:48;16.55;;;9.65;;
22849;SDS011;11591;44.792;10.358;2023-05-29T12:00:21;21.55;;;10.23;;
22849;SDS011;11591;44.792;10.358;2023-05-29T12:02:47;18.23;;;10.48;;
22849;SDS011;11591;44.792;10.358;2023-05-29T12:05:15;19.55;;;9.90;;
22849;SDS011;11591;44.792;10.358;2023-05-29T12:07:50;16.90;;;9.50;;
22849;SDS011;11591;44.792;10.358;2023-05-29T12:10:17;20.67;;;9.40;;
22849;SDS011;11591;44.792;10.358;2023-05-29T12:12:49;15.57;;;9.57;;
22849;SDS011;11591;44.792;10.358;2023-05-29T12:15:17;16.00;;;9.15;;
22849;SDS011;11591;44.792;10.358;2023-05-29T12:17:46;18.58;;;9.18;;
22849;SDS011;11591;44.792;10.358;2023-05-29T12:20:14;18.50;;;9.23;;
22849;SDS011;11591;44.792;10.358;2023-05-29T12:22:40;14.45;;;8.18;;
22849;SDS011;11591;44.792;10.358;2023-05-29T12:25:11;14.38;;;8.13;;
22849;SDS011;11591;44.792;10.358;2023-05-29T12:27:42;20.92;;;9.68;;
22849;SDS011;11591;44.792;10.358;2023-05-29T12:30:12;18.27;;;8.65;;
22849;SDS011;11591;44.792;10.358;2023-05-29T12:32:40;14.00;;;8.85;;
22849;SDS011;11591;44.792;10.358;2023-05-29T12:37:45;21.08;;;9.35;;
22849;SDS011;11591;44.792;10.358;2023-05-29T12:40:24;13.68;;;7.88;;
22849;SDS011;11591;44.792;10.358;2023-05-29T12:42:57;17.15;;;8.52;;
22849;SDS011;11591;44.792;10.358;2023-05-29T12:45:28;17.58;;;8.88;;
22849;SDS011;11591;44.792;10.358;2023-05-29T12:47:56;16.95;;;8.90;;
22849;SDS011;11591;44.792;10.358;2023-05-29T12:50:27;16.30;;;9.20;;
22849;SDS011;11591;44.792;10.358;2023-05-29T12:55:24;11.57;;;7.53;;
22849;SDS011;11591;44.792;10.358;2023-05-29T12:58:18;14.30;;;8.25;;
22849;SDS011;11591;44.792;10.358;2023-05-29T13:00:52;15.18;;;8.25;;
22849;SDS011;11591;44.792;10.358;2023-05-29T13:03:22;13.07;;;7.40;;
22849;SDS011;11591;44.792;10.358;2023-05-29T13:05:51;10.65;;;6.93;;
22849;SDS011;11591;44.792;10.358;2023-05-29T13:08:18;15.82;;;8.23;;
22849;SDS011;11591;44.792;10.358;2023-05-29T13:10:45;12.57;;;7.15;;
22849;SDS011;11591;44.792;10.358;2023-05-29T13:13:11;13.35;;;7.05;;
22849;SDS011;11591;44.792;10.358;2023-05-29T13:15:37;15.82;;;6.72;;
22849;SDS011;11591;44.792;10.358;2023-05-29T13:18:05;15.40;;;6.88;;
22849;SDS011;11591;44.792;10.358;2023-05-29T13:20:31;12.15;;;7.43;;
22849;SDS011;11591;44.792;10.358;2023-05-29T13:22:57;12.63;;;6.88;;
22849;SDS011;11591;44.792;10.358;2023-05-29T13:25:23;11.18;;;6.65;;
22849;SDS011;11591;44.792;10.358;2023-05-29T13:27:50;16.08;;;7.57;;
22849;SDS011;11591;44.792;10.358;2023-05-29T13:30:17;14.38;;;7.18;;
22849;SDS011;11591;44.792;10.358;2023-05-29T13:32:43;10.93;;;6.18;;
22849;SDS011;11591;44.792;10.358;2023-05-29T13:35:09;10.38;;;5.78;;
22849;SDS011;11591;44.792;10.358;2023-05-29T13:37:36;9.80;;;6.53;;
22849;SDS011;11591;44.792;10.358;2023-05-29T13:40:02;10.82;;;6.15;;
22849;SDS011;11591;44.792;10.358;2023-05-29T13:42:32;13.45;;;5.82;;
22849;SDS011;11591;44.792;10.358;2023-05-29T13:44:58;14.13;;;6.40;;
22849;SDS011;11591;44.792;10.358;2023-05-29T13:47:23;12.80;;;6.07;;
22849;SDS011;11591;44.792;10.358;2023-05-29T13:49:51;11.73;;;6.53;;
22849;SDS011;11591;44.792;10.358;2023-05-29T13:52:18;9.57;;;5.88;;
22849;SDS011;11591;44.792;10.358;2023-05-29T13:54:44;8.75;;;6.15;;
22849;SDS011;11591;44.792;10.358;2023-05-29T13:57:10;12.20;;;5.97;;
22849;SDS011;11591;44.792;10.358;2023-05-29T13:59:36;12.18;;;5.93;;
22849;SDS011;11591;44.792;10.358;2023-05-29T14:02:02;9.75;;;5.70;;
22849;SDS011;11591;44.792;10.358;2023-05-29T14:04:29;9.93;;;5.65;;
22849;SDS011;11591;44.792;10.358;2023-05-29T14:06:55;10.32;;;5.97;;
22849;SDS011;11591;44.792;10.358;2023-05-29T14:09:21;10.35;;;5.75;;
22849;SDS011;11591;44.792;10.358;2023-05-29T14:11:53;11.10;;;5.72;;
22849;SDS011;11591;44.792;10.358;2023-05-29T14:14:19;12.35;;;6.32;;
22849;SDS011;11591;44.792;10.358;2023-05-29T14:16:46;11.85;;;5.47;;
22849;SDS011;11591;44.792;10.358;2023-05-29T14:19:11;13.07;;;6.32;;
22849;SDS011;11591;44.792;10.358;2023-05-29T14:21:37;13.18;;;6.20;;
22849;SDS011;11591;44.792;10.358;2023-05-29T14:24:03;15.25;;;6.15;;
22849;SDS011;11591;44.792;10.358;2023-05-29T14:26:29;12.63;;;5.68;;
22849;SDS011;11591;44.792;10.358;2023-05-29T14:28:54;12.90;;;5.90;;
22849;SDS011;11591;44.792;10.358;2023-05-29T14:31:21;10.82;;;5.72;;
22849;SDS011;11591;44.792;10.358;2023-05-29T14:33:47;11.30;;;5.75;;
22849;SDS011;11591;44.792;10.358;2023-05-29T14:36:12;12.75;;;5.82;;
22849;SDS011;11591;44.792;10.358;2023-05-29T14:38:38;7.97;;;5.15;;
22849;SDS011;11591;44.792;10.358;2023-05-29T14:41:04;9.20;;;5.68;;